sensor_id;sensor_type;location;lat;lon;timestamp;P1;durP1;ratioP1;P2;durP2;ratioP2
3573;SDS011;1801;51.050;6.246;2022-08-21T00:00:13;19.47;;;11.23;;
3573;SDS011;1801;51.050;6.246;2022-08-21T00:02:44;19.33;;;10.70;;
3573;SDS011;1801;51.050;6.246;2022-08-21T00:05:10;41.53;;;12.80;;
3573;SDS011;1801;51.050;6.246;2022-08-21T00:07:35;24.47;;;12.03;;
3573;SDS011;1801;51.050;6.246;2022-08-21T00:10:00;17.67;;;12.00;;
3573;SDS011;1801;51.050;6.246;2022-08-21T00:12:26;14.90;;;11.00;;
3573;SDS011;1801;51.050;6.246;2022-08-21T00:14:52;17.00;;;10.97;;
3573;SDS011;1801;51.050;6.246;2022-08-21T00:17:17;18.80;;;11.40;;
3573;SDS011;1801;51.050;6.246;2022-08-21T00:19:42;19.70;;;12.10;;
3573;SDS011;1801;51.050;6.246;2022-08-21T00:22:07;13.47;;;11.33;;
3573;SDS011;1801;51.050;6.246;2022-08-21T00:24:33;15.20;;;10.90;;
3573;SDS011;1801;51.050;6.246;2022-08-21T00:26:58;16.87;;;11.17;;
3573;SDS011;1801;51.050;6.246;2022-08-21T00:29:23;27.03;;;12.37;;
3573;SDS011;1801;51.050;6.246;2022-08-21T00:31:49;18.97;;;12.63;;
3573;SDS011;1801;51.050;6.246;2022-08-21T00:34:14;23.50;;;13.97;;
3573;SDS011;1801;51.050;6.246;2022-08-21T00:36:39;20.10;;;12.53;;
3573;SDS011;1801;51.050;6.246;2022-08-21T00:39:05;19.30;;;13.67;;
3573;SDS011;1801;51.050;6.246;2022-08-21T00:41:31;20.20;;;13.67;;
3573;SDS011;1801;51.050;6.246;2022-08-21T00:43:56;19.20;;;12.37;;
3573;SDS011;1801;51.050;6.246;2022-08-21T00:46:22;26.67;;;13.83;;
3573;SDS011;1801;51.050;6.246;2022-08-21T00:48:49;21.93;;;13.47;;
3573;SDS011;1801;51.050;6.246;2022-08-21T00:51:19;20.60;;;13.13;;
3573;SDS011;1801;51.050;6.246;2022-08-21T00:53:51;15.17;;;12.47;;
3573;SDS011;1801;51.050;6.246;2022-08-21T00:56:18;18.70;;;12.70;;
3573;SDS011;1801;51.050;6.246;2022-08-21T00:58:44;19.07;;;12.37;;
3573;SDS011;1801;51.050;6.246;2022-08-21T01:01:10;18.53;;;12.50;;
3573;SDS011;1801;51.050;6.246;2022-08-21T01:03:35;22.57;;;13.20;;
3573;SDS011;1801;51.050;6.246;2022-08-21T01:06:00;22.63;;;14.53;;
3573;SDS011;1801;51.050;6.246;2022-08-21T01:08:26;22.90;;;13.77;;
3573;SDS011;1801;51.050;6.246;2022-08-21T01:10:53;24.50;;;13.20;;
3573;SDS011;1801;51.050;6.246;2022-08-21T01:13:19;23.30;;;13.37;;
3573;SDS011;1801;51.050;6.246;2022-08-21T01:15:45;22.13;;;13.50;;
3573;SDS011;1801;51.050;6.246;2022-08-21T01:18:11;17.67;;;12.17;;
3573;SDS011;1801;51.050;6.246;2022-08-21T01:20:37;19.10;;;12.93;;
3573;SDS011;1801;51.050;6.246;2022-08-21T01:23:04;24.33;;;13.17;;
3573;SDS011;1801;51.050;6.246;2022-08-21T01:25:30;24.43;;;13.73;;
3573;SDS011;1801;51.050;6.246;2022-08-21T01:27:55;22.00;;;12.80;;
3573;SDS011;1801;51.050;6.246;2022-08-21T01:30:23;19.17;;;12.70;;
3573;SDS011;1801;51.050;6.246;2022-08-21T01:32:48;20.80;;;12.93;;
3573;SDS011;1801;51.050;6.246;2022-08-21T01:35:14;20.50;;;13.03;;
3573;SDS011;1801;51.050;6.246;2022-08-21T01:37:40;22.43;;;13.13;;
3573;SDS011;1801;51.050;6.246;2022-08-21T01:40:06;21.93;;;14.67;;
3573;SDS011;1801;51.050;6.246;2022-08-21T01:42:32;18.53;;;12.90;;
3573;SDS011;1801;51.050;6.246;2022-08-21T01:44:57;21.37;;;13.87;;
3573;SDS011;1801;51.050;6.246;2022-08-21T01:47:23;18.73;;;13.70;;
3573;SDS011;1801;51.050;6.246;2022-08-21T01:49:48;19.23;;;13.00;;
3573;SDS011;1801;51.050;6.246;2022-08-21T01:52:13;25.20;;;12.37;;
3573;SDS011;1801;51.050;6.246;2022-08-21T01:54:39;18.17;;;12.00;;
3573;SDS011;1801;51.050;6.246;2022-08-21T01:57:04;16.13;;;11.77;;
3573;SDS011;1801;51.050;6.246;2022-08-21T01:59:30;15.60;;;11.67;;
3573;SDS011;1801;51.050;6.246;2022-08-21T02:01:55;23.20;;;12.43;;
3573;SDS011;1801;51.050;6.246;2022-08-21T02:04:20;20.47;;;11.70;;
3573;SDS011;1801;51.050;6.246;2022-08-21T02:06:46;20.17;;;10.90;;
3573;SDS011;1801;51.050;6.246;2022-08-21T02:09:11;18.27;;;12.00;;
3573;SDS011;1801;51.050;6.246;2022-08-21T02:11:37;16.67;;;11.77;;
3573;SDS011;1801;51.050;6.246;2022-08-21T02:14:08;14.77;;;11.40;;
3573;SDS011;1801;51.050;6.246;2022-08-21T02:16:34;20.37;;;11.00;;
3573;SDS011;1801;51.050;6.246;2022-08-21T02:18:59;16.30;;;12.03;;
3573;SDS011;1801;51.050;6.246;2022-08-21T02:21:25;17.77;;;12.37;;
3573;SDS011;1801;51.050;6.246;2022-08-21T02:23:50;19.70;;;10.33;;
3573;SDS011;1801;51.050;6.246;2022-08-21T02:26:16;18.10;;;11.27;;
3573;SDS011;1801;51.050;6.246;2022-08-21T02:28:41;27.27;;;11.90;;
3573;SDS011;1801;51.050;6.246;2022-08-21T02:31:07;20.53;;;11.37;;
3573;SDS011;1801;51.050;6.246;2022-08-21T02:33:32;20.20;;;12.90;;
3573;SDS011;1801;51.050;6.246;2022-08-21T02:35:58;19.07;;;11.70;;
3573;SDS011;1801;51.050;6.246;2022-08-21T02:38:25;28.53;;;12.13;;
3573;SDS011;1801;51.050;6.246;2022-08-21T02:40:51;19.10;;;11.47;;
3573;SDS011;1801;51.050;6.246;2022-08-21T02:43:17;24.00;;;11.10;;
3573;SDS011;1801;51.050;6.246;2022-08-21T02:45:43;17.73;;;12.10;;
3573;SDS011;1801;51.050;6.246;2022-08-21T02:48:09;21.27;;;10.40;;
3573;SDS011;1801;51.050;6.246;2022-08-21T02:50:36;13.97;;;9.83;;
3573;SDS011;1801;51.050;6.246;2022-08-21T02:53:02;15.43;;;10.37;;
3573;SDS011;1801;51.050;6.246;2022-08-21T02:55:29;14.43;;;9.73;;
3573;SDS011;1801;51.050;6.246;2022-08-21T02:57:55;14.00;;;9.43;;
3573;SDS011;1801;51.050;6.246;2022-08-21T03:00:22;21.83;;;9.27;;
3573;SDS011;1801;51.050;6.246;2022-08-21T03:02:48;14.03;;;9.00;;
3573;SDS011;1801;51.050;6.246;2022-08-21T03:05:13;13.03;;;7.50;;
3573;SDS011;1801;51.050;6.246;2022-08-21T03:07:40;15.73;;;9.07;;
3573;SDS011;1801;51.050;6.246;2022-08-21T03:10:05;10.97;;;8.60;;
3573;SDS011;1801;51.050;6.246;2022-08-21T03:12:31;15.77;;;9.43;;
3573;SDS011;1801;51.050;6.246;2022-08-21T03:14:56;14.90;;;7.97;;
3573;SDS011;1801;51.050;6.246;2022-08-21T03:17:22;16.40;;;9.90;;
3573;SDS011;1801;51.050;6.246;2022-08-21T03:19:47;13.13;;;8.50;;
3573;SDS011;1801;51.050;6.246;2022-08-21T03:22:13;15.60;;;8.60;;
3573;SDS011;1801;51.050;6.246;2022-08-21T03:24:38;22.60;;;8.97;;
3573;SDS011;1801;51.050;6.246;2022-08-21T03:27:03;13.40;;;8.57;;
3573;SDS011;1801;51.050;6.246;2022-08-21T03:29:28;17.67;;;8.80;;
3573;SDS011;1801;51.050;6.246;2022-08-21T03:31:54;15.37;;;8.20;;
3573;SDS011;1801;51.050;6.246;2022-08-21T03:34:19;15.87;;;9.57;;
3573;SDS011;1801;51.050;6.246;2022-08-21T03:36:45;13.87;;;7.50;;
3573;SDS011;1801;51.050;6.246;2022-08-21T03:39:10;17.67;;;8.40;;
3573;SDS011;1801;51.050;6.246;2022-08-21T03:41:35;14.70;;;7.87;;
3573;SDS011;1801;51.050;6.246;2022-08-21T03:44:00;14.30;;;8.27;;
3573;SDS011;1801;51.050;6.246;2022-08-21T03:46:25;18.50;;;8.30;;
3573;SDS011;1801;51.050;6.246;2022-08-21T03:48:51;18.93;;;8.63;;
3573;SDS011;1801;51.050;6.246;2022-08-21T03:51:17;11.50;;;7.37;;
3573;SDS011;1801;51.050;6.246;2022-08-21T03:53:42;13.20;;;7.30;;
3573;SDS011;1801;51.050;6.246;2022-08-21T03:56:08;19.60;;;8.73;;
3573;SDS011;1801;51.050;6.246;2022-08-21T03:58:33;11.20;;;6.93;;
3573;SDS011;1801;51.050;6.246;2022-08-21T04:00:59;14.47;;;8.30;;
3573;SDS011;1801;51.050;6.246;2022-08-21T04:03:25;14.50;;;8.50;;
3573;SDS011;1801;51.050;6.246;2022-08-21T04:05:50;12.07;;;7.67;;
3573;SDS011;1801;51.050;6.246;2022-08-21T04:08:16;10.50;;;6.90;;
3573;SDS011;1801;51.050;6.246;2022-08-21T04:10:46;14.13;;;7.10;;
3573;SDS011;1801;51.050;6.246;2022-08-21T04:13:12;16.23;;;8.30;;
3573;SDS011;1801;51.050;6.246;2022-08-21T04:15:37;17.47;;;7.67;;
3573;SDS011;1801;51.050;6.246;2022-08-21T04:18:03;13.83;;;7.37;;
3573;SDS011;1801;51.050;6.246;2022-08-21T04:20:29;11.87;;;8.10;;
3573;SDS011;1801;51.050;6.246;2022-08-21T04:22:54;15.93;;;8.90;;
3573;SDS011;1801;51.050;6.246;2022-08-21T04:25:21;14.00;;;7.90;;
3573;SDS011;1801;51.050;6.246;2022-08-21T04:27:46;16.77;;;8.00;;
3573;SDS011;1801;51.050;6.246;2022-08-21T04:30:13;10.60;;;7.13;;
3573;SDS011;1801;51.050;6.246;2022-08-21T04:32:41;19.27;;;8.63;;
3573;SDS011;1801;51.050;6.246;2022-08-21T04:35:07;13.00;;;9.00;;
3573;SDS011;1801;51.050;6.246;2022-08-21T04:37:34;17.03;;;7.00;;
3573;SDS011;1801;51.050;6.246;2022-08-21T04:39:59;12.83;;;7.63;;
3573;SDS011;1801;51.050;6.246;2022-08-21T04:42:25;11.67;;;6.60;;
3573;SDS011;1801;51.050;6.246;2022-08-21T04:44:51;11.67;;;6.90;;
3573;SDS011;1801;51.050;6.246;2022-08-21T04:47:16;11.83;;;7.10;;
3573;SDS011;1801;51.050;6.246;2022-08-21T04:49:42;14.03;;;7.20;;
3573;SDS011;1801;51.050;6.246;2022-08-21T04:52:07;10.70;;;7.77;;
3573;SDS011;1801;51.050;6.246;2022-08-21T04:54:32;15.73;;;7.57;;
3573;SDS011;1801;51.050;6.246;2022-08-21T04:56:59;11.73;;;7.00;;
3573;SDS011;1801;51.050;6.246;2022-08-21T04:59:33;11.07;;;7.47;;
3573;SDS011;1801;51.050;6.246;2022-08-21T05:02:00;18.67;;;6.53;;
3573;SDS011;1801;51.050;6.246;2022-08-21T05:04:27;9.73;;;6.93;;
3573;SDS011;1801;51.050;6.246;2022-08-21T05:06:55;9.17;;;7.00;;
3573;SDS011;1801;51.050;6.246;2022-08-21T05:09:21;15.30;;;7.90;;
3573;SDS011;1801;51.050;6.246;2022-08-21T05:11:46;14.43;;;7.13;;
3573;SDS011;1801;51.050;6.246;2022-08-21T05:14:13;13.57;;;7.60;;
3573;SDS011;1801;51.050;6.246;2022-08-21T05:16:38;10.97;;;7.53;;
3573;SDS011;1801;51.050;6.246;2022-08-21T05:19:07;19.57;;;8.13;;
3573;SDS011;1801;51.050;6.246;2022-08-21T05:21:33;11.70;;;7.50;;
3573;SDS011;1801;51.050;6.246;2022-08-21T05:23:58;9.77;;;7.70;;
3573;SDS011;1801;51.050;6.246;2022-08-21T05:26:23;14.07;;;8.20;;
3573;SDS011;1801;51.050;6.246;2022-08-21T05:28:48;12.80;;;7.67;;
3573;SDS011;1801;51.050;6.246;2022-08-21T05:31:13;9.80;;;6.83;;
3573;SDS011;1801;51.050;6.246;2022-08-21T05:33:38;13.63;;;7.30;;
3573;SDS011;1801;51.050;6.246;2022-08-21T05:36:04;8.90;;;7.00;;
3573;SDS011;1801;51.050;6.246;2022-08-21T05:38:29;17.00;;;7.33;;
3573;SDS011;1801;51.050;6.246;2022-08-21T05:40:54;19.17;;;7.27;;
3573;SDS011;1801;51.050;6.246;2022-08-21T05:43:20;13.00;;;6.83;;
3573;SDS011;1801;51.050;6.246;2022-08-21T05:45:45;12.17;;;6.83;;
3573;SDS011;1801;51.050;6.246;2022-08-21T05:48:12;17.73;;;6.77;;
3573;SDS011;1801;51.050;6.246;2022-08-21T05:50:37;11.50;;;6.27;;
3573;SDS011;1801;51.050;6.246;2022-08-21T05:53:03;10.27;;;6.63;;
3573;SDS011;1801;51.050;6.246;2022-08-21T05:55:28;10.37;;;5.77;;
3573;SDS011;1801;51.050;6.246;2022-08-21T05:57:54;12.50;;;6.30;;
3573;SDS011;1801;51.050;6.246;2022-08-21T06:00:19;11.03;;;6.20;;
3573;SDS011;1801;51.050;6.246;2022-08-21T06:02:44;15.73;;;5.93;;
3573;SDS011;1801;51.050;6.246;2022-08-21T06:05:09;13.33;;;6.60;;
3573;SDS011;1801;51.050;6.246;2022-08-21T06:07:35;14.20;;;6.70;;
3573;SDS011;1801;51.050;6.246;2022-08-21T06:10:00;10.10;;;5.40;;
3573;SDS011;1801;51.050;6.246;2022-08-21T06:12:26;18.03;;;5.83;;
3573;SDS011;1801;51.050;6.246;2022-08-21T06:14:51;10.83;;;6.10;;
3573;SDS011;1801;51.050;6.246;2022-08-21T06:17:17;17.13;;;6.07;;
3573;SDS011;1801;51.050;6.246;2022-08-21T06:19:42;11.50;;;6.53;;
3573;SDS011;1801;51.050;6.246;2022-08-21T06:22:07;12.10;;;5.70;;
3573;SDS011;1801;51.050;6.246;2022-08-21T06:24:32;13.03;;;5.10;;
3573;SDS011;1801;51.050;6.246;2022-08-21T06:27:03;11.77;;;4.77;;
3573;SDS011;1801;51.050;6.246;2022-08-21T06:29:28;18.73;;;5.70;;
3573;SDS011;1801;51.050;6.246;2022-08-21T06:31:53;12.23;;;5.30;;
3573;SDS011;1801;51.050;6.246;2022-08-21T06:34:19;14.10;;;5.10;;
3573;SDS011;1801;51.050;6.246;2022-08-21T06:36:44;24.07;;;5.20;;
3573;SDS011;1801;51.050;6.246;2022-08-21T06:39:09;7.90;;;4.43;;
3573;SDS011;1801;51.050;6.246;2022-08-21T06:41:35;11.60;;;5.27;;
3573;SDS011;1801;51.050;6.246;2022-08-21T06:44:00;9.00;;;4.60;;
3573;SDS011;1801;51.050;6.246;2022-08-21T06:46:26;10.73;;;4.43;;
3573;SDS011;1801;51.050;6.246;2022-08-21T06:48:52;12.03;;;4.57;;
3573;SDS011;1801;51.050;6.246;2022-08-21T06:51:17;13.93;;;4.20;;
3573;SDS011;1801;51.050;6.246;2022-08-21T06:53:42;14.83;;;4.60;;
3573;SDS011;1801;51.050;6.246;2022-08-21T06:56:07;10.00;;;3.50;;
3573;SDS011;1801;51.050;6.246;2022-08-21T06:58:33;5.43;;;3.20;;
3573;SDS011;1801;51.050;6.246;2022-08-21T07:00:58;6.80;;;3.20;;
3573;SDS011;1801;51.050;6.246;2022-08-21T07:03:24;18.77;;;3.90;;
3573;SDS011;1801;51.050;6.246;2022-08-21T07:05:50;6.80;;;3.70;;
3573;SDS011;1801;51.050;6.246;2022-08-21T07:08:15;9.33;;;3.83;;
3573;SDS011;1801;51.050;6.246;2022-08-21T07:10:41;10.17;;;3.23;;
3573;SDS011;1801;51.050;6.246;2022-08-21T07:13:06;8.70;;;3.60;;
3573;SDS011;1801;51.050;6.246;2022-08-21T07:15:31;8.20;;;4.30;;
3573;SDS011;1801;51.050;6.246;2022-08-21T07:17:58;11.10;;;3.27;;
3573;SDS011;1801;51.050;6.246;2022-08-21T07:20:23;11.40;;;3.03;;
3573;SDS011;1801;51.050;6.246;2022-08-21T07:22:49;12.03;;;2.77;;
3573;SDS011;1801;51.050;6.246;2022-08-21T07:25:14;16.67;;;3.00;;
3573;SDS011;1801;51.050;6.246;2022-08-21T07:27:39;6.10;;;3.27;;
3573;SDS011;1801;51.050;6.246;2022-08-21T07:30:05;6.73;;;2.57;;
3573;SDS011;1801;51.050;6.246;2022-08-21T07:32:30;6.63;;;1.80;;
3573;SDS011;1801;51.050;6.246;2022-08-21T07:34:55;6.50;;;2.33;;
3573;SDS011;1801;51.050;6.246;2022-08-21T07:37:21;5.40;;;2.47;;
3573;SDS011;1801;51.050;6.246;2022-08-21T07:39:46;11.90;;;2.07;;
3573;SDS011;1801;51.050;6.246;2022-08-21T07:42:13;6.43;;;2.13;;
3573;SDS011;1801;51.050;6.246;2022-08-21T07:44:39;7.47;;;2.20;;
3573;SDS011;1801;51.050;6.246;2022-08-21T07:47:04;8.67;;;1.97;;
3573;SDS011;1801;51.050;6.246;2022-08-21T07:49:29;6.23;;;2.07;;
3573;SDS011;1801;51.050;6.246;2022-08-21T07:51:54;11.43;;;1.93;;
3573;SDS011;1801;51.050;6.246;2022-08-21T07:54:20;5.67;;;1.70;;
3573;SDS011;1801;51.050;6.246;2022-08-21T07:56:45;3.87;;;1.77;;
3573;SDS011;1801;51.050;6.246;2022-08-21T07:59:10;5.50;;;2.17;;
3573;SDS011;1801;51.050;6.246;2022-08-21T08:01:35;8.10;;;2.20;;
3573;SDS011;1801;51.050;6.246;2022-08-21T08:04:01;7.90;;;2.20;;
3573;SDS011;1801;51.050;6.246;2022-08-21T08:06:26;7.13;;;2.20;;
3573;SDS011;1801;51.050;6.246;2022-08-21T08:08:51;3.33;;;1.70;;
3573;SDS011;1801;51.050;6.246;2022-08-21T08:11:17;4.83;;;2.77;;
3573;SDS011;1801;51.050;6.246;2022-08-21T08:13:43;6.63;;;2.37;;
3573;SDS011;1801;51.050;6.246;2022-08-21T08:16:09;6.30;;;1.97;;
3573;SDS011;1801;51.050;6.246;2022-08-21T08:18:34;6.10;;;2.00;;
3573;SDS011;1801;51.050;6.246;2022-08-21T08:20:59;3.67;;;1.80;;
3573;SDS011;1801;51.050;6.246;2022-08-21T08:23:25;11.37;;;2.40;;
3573;SDS011;1801;51.050;6.246;2022-08-21T08:25:51;2.77;;;1.80;;
3573;SDS011;1801;51.050;6.246;2022-08-21T08:28:16;7.07;;;2.53;;
3573;SDS011;1801;51.050;6.246;2022-08-21T08:30:41;10.23;;;2.47;;
3573;SDS011;1801;51.050;6.246;2022-08-21T08:33:07;7.67;;;3.10;;
3573;SDS011;1801;51.050;6.246;2022-08-21T08:35:32;4.10;;;1.93;;
3573;SDS011;1801;51.050;6.246;2022-08-21T08:37:57;7.63;;;2.40;;
3573;SDS011;1801;51.050;6.246;2022-08-21T08:40:31;8.43;;;2.10;;
3573;SDS011;1801;51.050;6.246;2022-08-21T08:42:58;7.20;;;2.07;;
3573;SDS011;1801;51.050;6.246;2022-08-21T08:45:23;4.77;;;1.90;;
3573;SDS011;1801;51.050;6.246;2022-08-21T08:47:52;5.37;;;1.90;;
3573;SDS011;1801;51.050;6.246;2022-08-21T08:53:17;5.27;;;2.13;;
3573;SDS011;1801;51.050;6.246;2022-08-21T08:55:45;3.37;;;1.30;;
3573;SDS011;1801;51.050;6.246;2022-08-21T08:58:32;3.50;;;1.60;;
3573;SDS011;1801;51.050;6.246;2022-08-21T09:00:56;2.90;;;1.20;;
3573;SDS011;1801;51.050;6.246;2022-08-21T09:03:24;5.13;;;1.30;;
3573;SDS011;1801;51.050;6.246;2022-08-21T09:05:55;3.13;;;1.20;;
3573;SDS011;1801;51.050;6.246;2022-08-21T09:08:29;1.63;;;1.03;;
3573;SDS011;1801;51.050;6.246;2022-08-21T09:15:54;10.93;;;1.67;;
3573;SDS011;1801;51.050;6.246;2022-08-21T09:18:34;3.73;;;1.63;;
3573;SDS011;1801;51.050;6.246;2022-08-21T09:28:31;4.63;;;1.40;;
3573;SDS011;1801;51.050;6.246;2022-08-21T09:30:56;6.23;;;2.40;;
3573;SDS011;1801;51.050;6.246;2022-08-21T09:33:27;4.80;;;1.53;;
3573;SDS011;1801;51.050;6.246;2022-08-21T09:35:54;5.73;;;1.60;;
3573;SDS011;1801;51.050;6.246;2022-08-21T09:38:53;14.40;;;2.10;;
3573;SDS011;1801;51.050;6.246;2022-08-21T09:41:11;3.87;;;1.37;;
3573;SDS011;1801;51.050;6.246;2022-08-21T09:43:37;5.07;;;1.83;;
3573;SDS011;1801;51.050;6.246;2022-08-21T09:48:38;3.50;;;2.30;;
3573;SDS011;1801;51.050;6.246;2022-08-21T09:51:05;8.40;;;2.43;;
3573;SDS011;1801;51.050;6.246;2022-08-21T09:53:31;5.60;;;1.70;;
3573;SDS011;1801;51.050;6.246;2022-08-21T09:56:00;3.70;;;2.03;;
3573;SDS011;1801;51.050;6.246;2022-08-21T09:58:47;3.03;;;1.70;;
3573;SDS011;1801;51.050;6.246;2022-08-21T10:01:17;5.60;;;1.70;;
3573;SDS011;1801;51.050;6.246;2022-08-21T10:03:43;3.20;;;1.70;;
3573;SDS011;1801;51.050;6.246;2022-08-21T10:06:09;8.40;;;2.63;;
3573;SDS011;1801;51.050;6.246;2022-08-21T10:08:39;5.63;;;1.63;;
3573;SDS011;1801;51.050;6.246;2022-08-21T10:11:06;4.80;;;2.20;;
3573;SDS011;1801;51.050;6.246;2022-08-21T10:24:00;8.03;;;2.07;;
3573;SDS011;1801;51.050;6.246;2022-08-21T10:26:31;6.07;;;2.10;;
3573;SDS011;1801;51.050;6.246;2022-08-21T10:31:36;8.27;;;1.77;;
3573;SDS011;1801;51.050;6.246;2022-08-21T10:34:08;2.60;;;1.53;;
3573;SDS011;1801;51.050;6.246;2022-08-21T10:36:39;7.70;;;2.00;;
3573;SDS011;1801;51.050;6.246;2022-08-21T10:39:14;5.43;;;3.57;;
3573;SDS011;1801;51.050;6.246;2022-08-21T10:45:10;4.20;;;1.93;;
3573;SDS011;1801;51.050;6.246;2022-08-21T10:47:38;7.90;;;2.83;;
3573;SDS011;1801;51.050;6.246;2022-08-21T10:52:46;6.50;;;2.03;;
3573;SDS011;1801;51.050;6.246;2022-08-21T10:57:40;4.37;;;1.87;;
3573;SDS011;1801;51.050;6.246;2022-08-21T11:00:08;8.17;;;1.60;;
3573;SDS011;1801;51.050;6.246;2022-08-21T11:05:17;7.63;;;2.53;;
3573;SDS011;1801;51.050;6.246;2022-08-21T11:07:48;5.03;;;1.77;;
3573;SDS011;1801;51.050;6.246;2022-08-21T11:10:21;4.63;;;2.03;;
3573;SDS011;1801;51.050;6.246;2022-08-21T11:12:59;7.80;;;1.63;;
3573;SDS011;1801;51.050;6.246;2022-08-21T11:15:31;3.00;;;1.93;;
3573;SDS011;1801;51.050;6.246;2022-08-21T11:20:28;4.30;;;2.00;;
3573;SDS011;1801;51.050;6.246;2022-08-21T11:23:03;6.83;;;2.47;;
3573;SDS011;1801;51.050;6.246;2022-08-21T11:25:35;4.97;;;1.73;;
3573;SDS011;1801;51.050;6.246;2022-08-21T11:28:47;5.93;;;1.90;;
3573;SDS011;1801;51.050;6.246;2022-08-21T11:30:59;6.20;;;1.83;;
3573;SDS011;1801;51.050;6.246;2022-08-21T11:33:42;5.70;;;2.20;;
3573;SDS011;1801;51.050;6.246;2022-08-21T11:48:35;3.57;;;1.40;;
3573;SDS011;1801;51.050;6.246;2022-08-21T11:51:04;5.90;;;2.00;;
3573;SDS011;1801;51.050;6.246;2022-08-21T11:53:32;3.20;;;1.43;;
3573;SDS011;1801;51.050;6.246;2022-08-21T11:58:32;4.37;;;1.70;;
3573;SDS011;1801;51.050;6.246;2022-08-21T12:01:05;6.20;;;1.90;;
3573;SDS011;1801;51.050;6.246;2022-08-21T12:03:33;4.03;;;1.57;;
3573;SDS011;1801;51.050;6.246;2022-08-21T12:06:01;4.97;;;1.57;;
3573;SDS011;1801;51.050;6.246;2022-08-21T12:08:34;5.60;;;1.90;;
3573;SDS011;1801;51.050;6.246;2022-08-21T12:16:38;12.07;;;1.60;;
3573;SDS011;1801;51.050;6.246;2022-08-21T12:21:29;6.00;;;2.20;;
3573;SDS011;1801;51.050;6.246;2022-08-21T12:29:02;6.10;;;1.90;;
3573;SDS011;1801;51.050;6.246;2022-08-21T12:31:28;4.07;;;1.70;;
3573;SDS011;1801;51.050;6.246;2022-08-21T12:33:59;4.23;;;1.57;;
3573;SDS011;1801;51.050;6.246;2022-08-21T12:36:42;5.60;;;1.60;;
3573;SDS011;1801;51.050;6.246;2022-08-21T12:39:13;6.63;;;2.47;;
3573;SDS011;1801;51.050;6.246;2022-08-21T12:41:44;6.07;;;1.93;;
3573;SDS011;1801;51.050;6.246;2022-08-21T12:44:12;4.40;;;1.70;;
3573;SDS011;1801;51.050;6.246;2022-08-21T12:49:18;5.00;;;2.07;;
3573;SDS011;1801;51.050;6.246;2022-08-21T12:51:55;5.17;;;1.40;;
3573;SDS011;1801;51.050;6.246;2022-08-21T12:54:22;6.60;;;1.83;;
3573;SDS011;1801;51.050;6.246;2022-08-21T12:56:55;4.97;;;1.30;;
3573;SDS011;1801;51.050;6.246;2022-08-21T12:59:20;3.80;;;1.60;;
3573;SDS011;1801;51.050;6.246;2022-08-21T13:01:47;3.73;;;1.80;;
3573;SDS011;1801;51.050;6.246;2022-08-21T13:04:14;6.37;;;1.67;;
3573;SDS011;1801;51.050;6.246;2022-08-21T13:06:42;4.37;;;1.93;;
3573;SDS011;1801;51.050;6.246;2022-08-21T13:09:09;5.37;;;1.80;;
3573;SDS011;1801;51.050;6.246;2022-08-21T13:11:35;2.90;;;1.20;;
3573;SDS011;1801;51.050;6.246;2022-08-21T13:14:01;6.20;;;1.40;;
3573;SDS011;1801;51.050;6.246;2022-08-21T13:16:27;4.00;;;1.77;;
3573;SDS011;1801;51.050;6.246;2022-08-21T13:21:18;2.37;;;1.33;;
3573;SDS011;1801;51.050;6.246;2022-08-21T13:23:43;2.70;;;1.20;;
3573;SDS011;1801;51.050;6.246;2022-08-21T13:26:13;6.83;;;1.77;;
3573;SDS011;1801;51.050;6.246;2022-08-21T13:28:38;3.40;;;1.70;;
3573;SDS011;1801;51.050;6.246;2022-08-21T13:31:06;2.97;;;1.30;;
3573;SDS011;1801;51.050;6.246;2022-08-21T13:33:31;3.17;;;1.37;;
3573;SDS011;1801;51.050;6.246;2022-08-21T13:38:24;6.83;;;1.67;;
3573;SDS011;1801;51.050;6.246;2022-08-21T13:40:57;3.77;;;1.67;;
3573;SDS011;1801;51.050;6.246;2022-08-21T13:43:26;4.53;;;2.40;;
3573;SDS011;1801;51.050;6.246;2022-08-21T13:45:53;7.30;;;2.00;;
3573;SDS011;1801;51.050;6.246;2022-08-21T13:48:19;6.47;;;1.97;;
3573;SDS011;1801;51.050;6.246;2022-08-21T13:50:44;5.67;;;2.20;;
3573;SDS011;1801;51.050;6.246;2022-08-21T13:53:20;4.43;;;1.40;;
3573;SDS011;1801;51.050;6.246;2022-08-21T13:55:47;6.90;;;2.00;;
3573;SDS011;1801;51.050;6.246;2022-08-21T13:58:12;5.47;;;1.70;;
3573;SDS011;1801;51.050;6.246;2022-08-21T14:00:49;6.93;;;1.50;;
3573;SDS011;1801;51.050;6.246;2022-08-21T14:03:23;6.57;;;1.63;;
3573;SDS011;1801;51.050;6.246;2022-08-21T14:05:50;7.73;;;2.30;;
3573;SDS011;1801;51.050;6.246;2022-08-21T14:08:30;4.20;;;1.50;;
3573;SDS011;1801;51.050;6.246;2022-08-21T14:10:56;2.63;;;1.63;;
3573;SDS011;1801;51.050;6.246;2022-08-21T14:13:43;8.20;;;2.03;;
3573;SDS011;1801;51.050;6.246;2022-08-21T14:16:19;5.27;;;2.00;;
3573;SDS011;1801;51.050;6.246;2022-08-21T14:18:52;4.87;;;1.83;;
3573;SDS011;1801;51.050;6.246;2022-08-21T14:21:27;4.70;;;1.87;;
3573;SDS011;1801;51.050;6.246;2022-08-21T14:24:58;3.83;;;1.50;;
3573;SDS011;1801;51.050;6.246;2022-08-21T14:26:54;7.93;;;2.40;;
3573;SDS011;1801;51.050;6.246;2022-08-21T14:29:21;4.27;;;1.80;;
3573;SDS011;1801;51.050;6.246;2022-08-21T14:31:51;3.47;;;1.73;;
3573;SDS011;1801;51.050;6.246;2022-08-21T14:34:16;3.27;;;1.33;;
3573;SDS011;1801;51.050;6.246;2022-08-21T14:36:42;3.80;;;1.70;;
3573;SDS011;1801;51.050;6.246;2022-08-21T14:39:08;2.53;;;1.57;;
3573;SDS011;1801;51.050;6.246;2022-08-21T14:41:33;6.03;;;1.67;;
3573;SDS011;1801;51.050;6.246;2022-08-21T14:43:58;7.90;;;1.80;;
3573;SDS011;1801;51.050;6.246;2022-08-21T14:46:25;6.50;;;2.33;;
3573;SDS011;1801;51.050;6.246;2022-08-21T14:48:51;3.23;;;1.33;;
3573;SDS011;1801;51.050;6.246;2022-08-21T14:51:17;5.93;;;1.60;;
3573;SDS011;1801;51.050;6.246;2022-08-21T14:53:42;6.00;;;1.83;;
3573;SDS011;1801;51.050;6.246;2022-08-21T14:56:07;4.27;;;1.90;;
3573;SDS011;1801;51.050;6.246;2022-08-21T14:58:34;6.33;;;2.67;;
3573;SDS011;1801;51.050;6.246;2022-08-21T15:01:00;4.20;;;1.83;;
3573;SDS011;1801;51.050;6.246;2022-08-21T15:03:28;4.57;;;1.83;;
3573;SDS011;1801;51.050;6.246;2022-08-21T15:05:53;2.60;;;1.80;;
3573;SDS011;1801;51.050;6.246;2022-08-21T15:08:19;2.20;;;1.30;;
3573;SDS011;1801;51.050;6.246;2022-08-21T15:10:44;4.37;;;1.60;;
3573;SDS011;1801;51.050;6.246;2022-08-21T15:13:09;5.90;;;1.70;;
3573;SDS011;1801;51.050;6.246;2022-08-21T15:15:39;2.40;;;1.50;;
3573;SDS011;1801;51.050;6.246;2022-08-21T15:18:05;4.50;;;1.87;;
3573;SDS011;1801;51.050;6.246;2022-08-21T15:20:30;5.60;;;1.90;;
3573;SDS011;1801;51.050;6.246;2022-08-21T15:22:55;6.30;;;2.00;;
3573;SDS011;1801;51.050;6.246;2022-08-21T15:25:20;5.10;;;1.70;;
3573;SDS011;1801;51.050;6.246;2022-08-21T15:27:45;10.10;;;1.60;;
3573;SDS011;1801;51.050;6.246;2022-08-21T15:30:11;8.00;;;1.90;;
3573;SDS011;1801;51.050;6.246;2022-08-21T15:32:36;6.07;;;1.80;;
3573;SDS011;1801;51.050;6.246;2022-08-21T15:35:02;6.40;;;2.07;;
3573;SDS011;1801;51.050;6.246;2022-08-21T15:37:28;7.13;;;2.30;;
3573;SDS011;1801;51.050;6.246;2022-08-21T15:39:53;8.83;;;2.70;;
3573;SDS011;1801;51.050;6.246;2022-08-21T15:42:19;11.97;;;1.87;;
3573;SDS011;1801;51.050;6.246;2022-08-21T15:44:44;4.60;;;2.00;;
3573;SDS011;1801;51.050;6.246;2022-08-21T15:47:12;2.53;;;1.30;;
3573;SDS011;1801;51.050;6.246;2022-08-21T15:49:38;3.50;;;1.83;;
3573;SDS011;1801;51.050;6.246;2022-08-21T15:52:04;10.77;;;1.97;;
3573;SDS011;1801;51.050;6.246;2022-08-21T15:54:29;3.77;;;1.90;;
3573;SDS011;1801;51.050;6.246;2022-08-21T15:56:54;6.40;;;2.00;;
3573;SDS011;1801;51.050;6.246;2022-08-21T15:59:20;5.40;;;2.00;;
3573;SDS011;1801;51.050;6.246;2022-08-21T16:01:47;8.13;;;1.50;;
3573;SDS011;1801;51.050;6.246;2022-08-21T16:04:21;6.63;;;1.50;;
3573;SDS011;1801;51.050;6.246;2022-08-21T16:06:46;6.57;;;2.20;;
3573;SDS011;1801;51.050;6.246;2022-08-21T16:09:12;5.93;;;2.57;;
3573;SDS011;1801;51.050;6.246;2022-08-21T16:11:38;3.97;;;1.63;;
3573;SDS011;1801;51.050;6.246;2022-08-21T16:14:03;6.43;;;1.87;;
3573;SDS011;1801;51.050;6.246;2022-08-21T16:16:28;4.47;;;1.60;;
3573;SDS011;1801;51.050;6.246;2022-08-21T16:18:55;12.17;;;1.87;;
3573;SDS011;1801;51.050;6.246;2022-08-21T16:21:20;5.40;;;2.20;;
3573;SDS011;1801;51.050;6.246;2022-08-21T16:23:45;12.00;;;2.43;;